Time;durP1;ratioP1;P1;durP2;ratioP2;P2;SDS_P1;SDS_P2;PMS_P1;PMS_P2;Temp;Humidity;BMP_temperature;BMP_pressure;BME280_temperature;BME280_humidity;BME280_pressure;Samples;Min_cycle;Max_cycle;Signal;HPM_P1;HPM_P2
2022/06/21 00:00:32;;;;;;;9.75;8.85;;;;;;;;;;5041551;28;20495;-79
2022/06/21 00:03:17;;;;;;;10.32;9.32;;;;;;;;;;5053573;28;20542;-79
2022/06/21 00:05:44;;;;;;;8.77;7.80;;;;;;;;;;5052411;28;20053;-77
2022/06/21 00:08:13;;;;;;;9.93;9.00;;;;;;;;;;5052690;28;20059;-71
2022/06/21 00:10:39;;;;;;;9.32;8.32;;;;;;;;;;5052152;28;20039;-79
2022/06/21 00:13:10;;;;;;;9.00;8.02;;;;;;;;;;5034333;28;20037;-79
2022/06/21 00:15:37;;;;;;;9.32;8.43;;;;;;;;;;5052375;28;20032;-81
2022/06/21 00:18:03;;;;;;;10.88;8.40;;;;;;;;;;5052432;28;20060;-80
2022/06/21 00:20:29;;;;;;;11.25;8.73;;;;;;;;;;5052694;28;20517;-78
2022/06/21 00:22:55;;;;;;;8.85;8.05;;;;;;;;;;5052499;28;20035;-79
2022/06/21 00:25:23;;;;;;;9.38;8.57;;;;;;;;;;5052280;28;20033;-77
2022/06/21 00:27:50;;;;;;;9.65;8.00;;;;;;;;;;5052415;28;20017;-79
2022/06/21 00:30:16;;;;;;;9.38;8.38;;;;;;;;;;5034191;28;20119;-73
2022/06/21 00:32:42;;;;;;;10.65;8.93;;;;;;;;;;5052304;28;20108;-78
2022/06/21 00:35:11;;;;;;;9.55;8.55;;;;;;;;;;5052075;28;20498;-76
2022/06/21 00:37:38;;;;;;;11.05;8.75;;;;;;;;;;5052326;28;20559;-79
2022/06/21 00:40:13;;;;;;;10.30;8.93;;;;;;;;;;5052194;28;20025;-74
2022/06/21 00:42:40;;;;;;;10.20;9.15;;;;;;;;;;5052151;28;20025;-81
2022/06/21 00:45:06;;;;;;;10.18;9.10;;;;;;;;;;5052365;28;20163;-76
2022/06/21 00:47:59;;;;;;;9.65;8.75;;;;;;;;;;5052486;28;20079;-78
2022/06/21 00:50:28;;;;;;;10.90;8.82;;;;;;;;;;5048678;28;20040;-72
2022/06/21 00:53:15;;;;;;;11.00;8.55;;;;;;;;;;5052684;28;20021;-83
2022/06/21 00:55:53;;;;;;;10.82;8.82;;;;;;;;;;5052664;28;20223;-71
2022/06/21 00:58:21;;;;;;;10.45;9.35;;;;;;;;;;5052178;28;20025;-74
2022/06/21 01:00:55;;;;;;;9.77;8.88;;;;;;;;;;5051693;28;20091;-74
2022/06/21 01:03:23;;;;;;;9.45;8.55;;;;;;;;;;5051813;28;20025;-75
2022/06/21 01:05:51;;;;;;;9.57;8.68;;;;;;;;;;5051627;28;20064;-73
2022/06/21 01:08:22;;;;;;;9.70;8.70;;;;;;;;;;5052077;28;20467;-74
2022/06/21 01:10:51;;;;;;;9.57;8.68;;;;;;;;;;5014857;28;20436;-72
2022/06/21 01:13:18;;;;;;;9.77;8.88;;;;;;;;;;5012204;28;20022;-73
2022/06/21 01:15:46;;;;;;;9.00;8.20;;;;;;;;;;5012394;28;20112;-72
2022/06/21 01:18:14;;;;;;;9.95;8.70;;;;;;;;;;5012208;28;20107;-75
2022/06/21 01:20:43;;;;;;;11.18;10.07;;;;;;;;;;5012272;28;20049;-72
2022/06/21 01:23:09;;;;;;;10.57;8.90;;;;;;;;;;5015651;28;20025;-73
2022/06/21 01:25:55;;;;;;;9.98;9.07;;;;;;;;;;5016170;28;20022;-73
2022/06/21 01:28:22;;;;;;;9.82;8.93;;;;;;;;;;5015693;28;20101;-72
2022/06/21 01:30:55;;;;;;;10.10;9.02;;;;;;;;;;5035286;28;20378;-75
2022/06/21 01:33:28;;;;;;;9.00;8.15;;;;;;;;;;5055323;28;20119;-74
2022/06/21 01:35:56;;;;;;;10.02;9.13;;;;;;;;;;5055277;28;20036;-73
2022/06/21 01:38:27;;;;;;;9.38;8.48;;;;;;;;;;5055641;28;20082;-74
2022/06/21 01:40:54;;;;;;;9.77;8.75;;;;;;;;;;5056347;28;20037;-84
2022/06/21 01:43:23;;;;;;;10.30;8.85;;;;;;;;;;5056518;28;20063;-86
2022/06/21 01:45:52;;;;;;;9.65;8.75;;;;;;;;;;5056167;28;20028;-84
2022/06/21 01:48:30;;;;;;;13.13;9.25;;;;;;;;;;5056479;28;20101;-89
2022/06/21 01:51:02;;;;;;;9.90;8.70;;;;;;;;;;5056250;28;20044;-80
2022/06/21 01:53:28;;;;;;;9.15;8.35;;;;;;;;;;5056091;28;20041;-86
2022/06/21 01:55:56;;;;;;;9.25;8.35;;;;;;;;;;5055839;28;20491;-85
2022/06/21 01:58:25;;;;;;;11.52;9.20;;;;;;;;;;5055803;28;20029;-82
2022/06/21 02:00:54;;;;;;;10.10;9.10;;;;;;;;;;5037366;28;20045;-86
2022/06/21 02:03:22;;;;;;;10.52;9.45;;;;;;;;;;5055367;28;20032;-75
2022/06/21 02:05:51;;;;;;;11.40;9.32;;;;;;;;;;5054769;28;20084;-74
2022/06/21 02:08:19;;;;;;;9.90;9.00;;;;;;;;;;5054737;28;20020;-74
2022/06/21 02:10:50;;;;;;;9.75;8.82;;;;;;;;;;5055165;28;20029;-81
2022/06/21 02:13:31;;;;;;;10.85;8.85;;;;;;;;;;5055650;28;20495;-86
2022/06/21 02:15:57;;;;;;;;;;;;;;;;;;5055337;28;20037;-75
2022/06/21 02:18:25;;;;;;;11.00;9.88;;;;;;;;;;5054645;28;19957;-72
2022/06/21 02:20:54;;;;;;;11.50;8.70;;;;;;;;;;5054460;28;20029;-73
2022/06/21 02:23:22;;;;;;;10.82;8.85;;;;;;;;;;5051789;28;20035;-71
2022/06/21 02:25:49;;;;;;;9.82;8.82;;;;;;;;;;5034382;28;20028;-72
2022/06/21 02:28:16;;;;;;;11.82;8.70;;;;;;;;;;5034707;28;20361;-72
2022/06/21 02:30:42;;;;;;;11.00;8.38;;;;;;;;;;5043129;28;20422;-76
2022/06/21 02:33:13;;;;;;;14.52;9.50;;;;;;;;;;5053745;28;20083;-73
2022/06/21 02:35:41;;;;;;;10.00;8.60;;;;;;;;;;5054394;28;20114;-75
2022/06/21 02:38:11;;;;;;;9.68;8.77;;;;;;;;;;5054044;28;20024;-72
2022/06/21 02:40:44;;;;;;;9.82;8.82;;;;;;;;;;5054144;28;20084;-71
2022/06/21 02:43:17;;;;;;;10.00;9.07;;;;;;;;;;5036222;28;20021;-73
2022/06/21 02:45:55;;;;;;;9.70;8.80;;;;;;;;;;5054467;28;20028;-76
2022/06/21 02:48:30;;;;;;;10.45;9.45;;;;;;;;;;5054405;28;20036;-77
2022/06/21 02:50:59;;;;;;;10.73;9.32;;;;;;;;;;5054292;28;20021;-80
2022/06/21 02:53:28;;;;;;;11.07;8.55;;;;;;;;;;5036314;28;20088;-75
2022/06/21 02:55:57;;;;;;;10.32;8.90;;;;;;;;;;5054233;28;20024;-72
2022/06/21 02:58:32;;;;;;;9.52;8.48;;;;;;;;;;5054247;28;20028;-74
2022/06/21 03:01:04;;;;;;;9.88;8.98;;;;;;;;;;5045745;28;20088;-69
2022/06/21 03:03:32;;;;;;;10.57;9.50;;;;;;;;;;5033998;28;20471;-74
2022/06/21 03:06:00;;;;;;;9.95;8.88;;;;;;;;;;5033838;28;20050;-74
2022/06/21 03:08:28;;;;;;;18.70;9.85;;;;;;;;;;5034030;28;20070;-73
2022/06/21 03:10:54;;;;;;;12.65;9.48;;;;;;;;;;5015771;28;20400;-73
2022/06/21 03:13:22;;;;;;;13.68;9.93;;;;;;;;;;5016472;28;20224;-70
2022/06/21 03:15:56;;;;;;;10.52;9.52;;;;;;;;;;5034026;28;20104;-73
2022/06/21 03:18:24;;;;;;;13.43;9.85;;;;;;;;;;5033949;28;20484;-75
2022/06/21 03:20:51;;;;;;;11.60;9.65;;;;;;;;;;5033794;28;20048;-72
2022/06/21 03:23:18;;;;;;;13.40;9.60;;;;;;;;;;5014396;28;20060;-73
2022/06/21 03:25:46;;;;;;;9.82;8.75;;;;;;;;;;5033686;28;20487;-76
2022/06/21 03:28:30;;;;;;;11.27;8.90;;;;;;;;;;5033525;28;20029;-78
2022/06/21 03:31:02;;;;;;;10.30;9.32;;;;;;;;;;5030547;28;20033;-75
2022/06/21 03:33:29;;;;;;;10.00;9.02;;;;;;;;;;5013745;28;20030;-77
2022/06/21 03:35:55;;;;;;;13.45;9.45;;;;;;;;;;5013799;28;20480;-72
2022/06/21 03:38:22;;;;;;;10.73;9.32;;;;;;;;;;5013714;28;20054;-74
2022/06/21 03:43:45;;;;;;;10.80;9.80;;;;;;;;;;5013325;28;20507;-77
2022/06/21 03:46:15;;;;;;;12.63;9.77;;;;;;;;;;5013616;28;20053;-72
2022/06/21 03:48:49;;;;;;;14.15;9.93;;;;;;;;;;5013593;28;20024;-73
2022/06/21 03:51:17;;;;;;;11.35;9.40;;;;;;;;;;5013453;28;20487;-74
2022/06/21 03:53:46;;;;;;;10.23;9.27;;;;;;;;;;5013531;28;20026;-75
2022/06/21 03:56:33;;;;;;;10.07;9.18;;;;;;;;;;5013481;28;20026;-75
2022/06/21 03:59:05;;;;;;;11.45;9.68;;;;;;;;;;5013479;28;20049;-73
2022/06/21 04:01:40;;;;;;;14.60;9.18;;;;;;;;;;5030215;28;20047;-76
2022/06/21 04:04:09;;;;;;;11.13;9.68;;;;;;;;;;5031773;28;20037;-72
2022/06/21 04:06:59;;;;;;;17.17;10.23;;;;;;;;;;5033006;28;20065;-80
2022/06/21 04:09:46;;;;;;;13.35;9.73;;;;;;;;;;4991591;28;20053;-76
2022/06/21 04:12:14;;;;;;;12.63;9.38;;;;;;;;;;4991007;28;20466;-73
2022/06/21 04:14:40;;;;;;;12.70;9.57;;;;;;;;;;4991636;28;20117;-81
2022/06/21 04:17:28;;;;;;;17.00;8.93;;;614.50;2406.40;;;;;;4990735;28;20098;-73
2022/06/21 04:20:13;;;;;;;14.18;9.75;;;;;;;;;;4991337;28;20039;-74
2022/06/21 04:22:54;;;;;;;12.95;8.90;;;;;;;;;;4991327;28;20077;-75
2022/06/21 04:25:40;;;;;;;11.10;8.00;;;;;;;;;;4991125;28;20041;-75
2022/06/21 04:28:13;;;;;;;14.65;9.05;;;;;;;;;;4991169;28;20120;-75
2022/06/21 04:30:42;;;;;;;12.25;8.32;;;;;;;;;;4990360;28;20026;-76
2022/06/21 04:33:14;;;;;;;13.23;8.70;;;;;;;;;;4990969;28;20097;-72
2022/06/21 04:35:42;;;;;;;15.00;9.68;;;;;;;;;;4991267;28;20129;-74
2022/06/21 04:38:12;;;;;;;12.48;9.13;;;;;;;;;;4991258;28;20112;-76
2022/06/21 04:40:46;;;;;;;10.30;8.80;;;;;;;;;;4989973;28;20058;-74
2022/06/21 04:43:15;;;;;;;13.00;9.23;;;;;;;;;;4990731;28;20027;-76
2022/06/21 04:45:53;;;;;;;24.15;10.35;;;;;;;;;;4995546;28;20034;-80
2022/06/21 04:48:22;;;;;;;21.08;10.27;;;;;;;;;;5023605;28;20484;-81
2022/06/21 04:50:54;;;;;;;14.05;10.07;;;;;;;;;;5023723;28;20025;-90
2022/06/21 04:53:26;;;;;;;18.90;10.85;;;;;;;;;;5018118;28;20026;-84
2022/06/21 04:55:55;;;;;;;14.18;9.20;;;;;;;;;;5025343;28;20052;-78
2022/06/21 04:58:21;;;;;;;15.48;9.60;;;;;;;;;;5018183;28;20026;-79
2022/06/21 05:00:48;;;;;;;13.45;8.50;;;;;;;;;;5037892;28;20567;-78
2022/06/21 05:03:27;;;;;;;14.90;8.40;;;;;;;;;;5031619;28;20033;-83
2022/06/21 05:05:53;;;;;;;11.95;8.30;;;;;;;;;;5036740;28;20065;-85
2022/06/21 05:08:24;;;;;;;13.70;8.50;;;;;;;;;;5036992;28;20048;-87
2022/06/21 05:10:54;;;;;;;12.67;8.30;;;;;;;;;;5036894;28;20116;-85
2022/06/21 05:13:23;;;;;;;10.40;9.03;;;;;;;;;;5037009;28;20757;-84
2022/06/21 05:15:50;;;;;;;12.23;8.23;;;;;;;;;;5036730;28;20033;-83
2022/06/21 05:18:25;;;;;;;15.20;9.70;;;;;;;;;;5037030;28;20021;-84
2022/06/21 05:20:53;;;;;;;9.25;7.45;;;;;;;;;;5036743;28;20383;-84
2022/06/21 05:23:20;;;;;;;12.18;7.95;;;;;;;;;;5036655;28;20017;-87
2022/06/21 05:25:47;;;;;;;14.32;7.78;;;;;;;;;;5036674;28;20075;-81
2022/06/21 05:28:19;;;;;;;14.57;8.23;;;;;;;;;;5036583;28;20022;-80
2022/06/21 05:30:49;;;;;;;10.02;7.60;;;;;;;;;;5044304;28;20033;-83
2022/06/21 05:33:23;;;;;;;12.38;8.10;;;;;;;;;;5055818;28;20116;-83
2022/06/21 05:35:50;;;;;;;12.98;8.80;;;;;;;;;;5056111;28;20309;-84
2022/06/21 05:38:19;;;;;;;16.30;8.38;;;;;;;;;;5055833;28;20352;-79
2022/06/21 05:40:45;;;;;;;12.20;7.50;;;;;;;;;;5055894;28;20048;-81
2022/06/21 05:43:13;;;;;;;15.13;7.95;;;;;;;;;;5055429;28;20029;-86
2022/06/21 05:45:40;;;;;;;10.88;7.22;;;;;;;;;;5055661;28;20025;-85
2022/06/21 05:48:21;;;;;;;16.77;8.40;;;;;;;;;;5055910;28;20032;-81
2022/06/21 05:50:48;;;;;;;12.23;7.45;;;;;;;;;;5055678;28;20013;-85
2022/06/21 05:53:18;;;;;;;14.80;8.43;;;;;;;;;;5055404;28;20032;-81
2022/06/21 05:55:46;;;;;;;21.63;8.63;;;;;;;;;;5055289;28;20081;-84
2022/06/21 05:58:17;;;;;;;9.70;7.32;;;;;;;;;;5055450;28;20246;-79
2022/06/21 06:00:46;;;;;;;10.00;7.75;;;;;;;;;;5055010;28;20429;-82
2022/06/21 06:03:22;;;;;;;14.43;7.25;;;;;;;;;;5055201;28;20036;-83
2022/06/21 06:05:49;;;;;;;13.38;7.60;;;;;;;;;;5055166;28;20414;-82
2022/06/21 06:08:23;;;;;;;15.25;8.30;;;;;;;;;;5054405;28;20021;-83
2022/06/21 06:10:49;;;;;;;30.88;10.40;;;;;;;;;;5055255;28;20025;-79
2022/06/21 06:13:17;;;;;;;12.70;7.82;;;;;;;;;;5055117;28;20028;-82
2022/06/21 06:15:52;;;;;;;9.75;7.22;;;;;;;;;;5055114;28;20047;-79
2022/06/21 06:18:19;;;;;;;12.35;7.70;;;;;;;;;;5055292;28;20095;-84
2022/06/21 06:20:50;;;;;;;8.50;7.05;;;;;;;;;;5055377;28;20091;-78
2022/06/21 06:23:16;;;;;;;10.90;7.65;;;;;;;;;;5055359;28;20056;-79
2022/06/21 06:25:50;;;;;;;18.30;8.05;;;;;;;;;;5055382;28;20025;-76
2022/06/21 06:28:34;;;;;;;11.98;8.02;;;;;;;;;;5055466;28;20479;-86
2022/06/21 06:31:04;;;;;;;11.20;6.80;;;;;;;;;;5037327;28;20483;-79
2022/06/21 06:33:33;;;;;;;11.40;8.47;;;;;;;;;;5055175;28;20060;-81
2022/06/21 06:36:02;;;;;;;11.50;8.40;;;;;;;;;;5055292;28;20049;-88
2022/06/21 06:38:29;;;;;;;12.43;7.50;;;;;;;;;;5055535;28;20052;-83
2022/06/21 06:40:59;;;;;;;13.30;7.60;;;;;;;;;;5054958;28;20029;-85
2022/06/21 06:43:31;;;;;;;13.00;8.18;;;;;;;;;;5054754;28;20040;-85
2022/06/21 06:45:58;;;;;;;13.63;7.10;;;;;;;;;;5054846;28;20029;-71
2022/06/21 06:48:26;;;;;;;12.35;7.65;;;;;;;;;;5054844;28;20387;-74
2022/06/21 06:50:59;;;;;;;9.43;7.30;;;;;;;;;;5054950;28;20043;-71
2022/06/21 06:53:41;;;;;;;10.55;7.47;;;;;;;;;;5054286;28;20033;-83
2022/06/21 06:56:13;;;;;;;9.77;7.70;;;;;;;;;;5055176;28;20032;-79
2022/06/21 06:58:49;;;;;;;12.40;7.30;;;;;;;;;;5036672;28;20427;-85
2022/06/21 07:01:17;;;;;;;14.48;7.47;;;;;;;;;;5054376;28;20037;-82
2022/06/21 07:03:52;;;;;;;11.77;7.70;;;;;;;;;;5054371;28;20116;-79
2022/06/21 07:06:38;;;;;;;10.85;7.03;;;;;;;;;;5054624;28;20032;-81
2022/06/21 07:09:14;;;;;;;12.80;8.20;;;;;;;;;;5054175;28;20017;-77
2022/06/21 07:11:41;;;;;;;10.27;7.55;;;;;;;;;;5054569;28;20021;-83
2022/06/21 07:14:19;;;;;;;13.43;7.72;;;;;;;;;;5054280;28;20043;-82
2022/06/21 07:16:45;;;;;;;12.63;7.32;;;;;;;;;;5054231;28;20075;-85
2022/06/21 07:19:11;;;;;;;8.32;6.70;;;;;;;;;;5053392;28;20032;-86
2022/06/21 07:21:38;;;;;;;9.55;7.20;;;;;;;;;;5054373;28;20080;-86
2022/06/21 07:24:11;;;;;;;12.60;7.30;;;;;;;;;;5054022;28;20474;-77
2022/06/21 07:26:47;;;;;;;9.27;7.13;;;;;;;;;;5054140;28;20112;-75
2022/06/21 07:29:28;;;;;;;10.00;7.25;;;;;;;;;;5036134;28;20024;-81
2022/06/21 07:31:58;;;;;;;10.45;7.15;;;;;;;;;;5054233;28;20017;-80
2022/06/21 07:34:37;;;;;;;11.30;7.35;;;;;;;;;;5054357;28;20085;-80
2022/06/21 07:37:19;;;;;;;9.65;6.95;;;;;;;;;;5054035;28;20028;-82
2022/06/21 07:39:45;;;;;;;10.88;6.50;;;;;;;;;;5053827;28;20017;-79
2022/06/21 07:42:16;;;;;;;10.90;7.00;;;;;;;;;;5053853;28;20056;-83
2022/06/21 07:44:42;;;;;;;;;;;;;;;;;;5054320;28;20029;-84
2022/06/21 07:47:16;;;;;;;10.20;6.90;;;;;;;;;;5054262;28;19975;-82
2022/06/21 07:49:49;;;;;;;11.98;7.53;;;;;;;;;;5053588;28;20018;-79
2022/06/21 07:52:19;;;;;;;9.88;7.03;;;;;;;;;;5053508;28;20039;-76
2022/06/21 07:54:47;;;;;;;9.65;7.40;;;;;;;;;;5053417;28;20028;-80
2022/06/21 07:57:13;;;;;;;9.80;7.47;;;;;;;;;;5053535;28;20475;-79
2022/06/21 07:59:43;;;;;;;13.98;6.70;;;;;;;;;;5053140;28;20025;-77
2022/06/21 08:08:22;;;;;;;9.48;6.90;;;;;;;;;;4972861;28;20073;-80
2022/06/21 08:10:51;;;;;;;7.70;6.70;;;;;;;;;;4972966;28;20054;-82
2022/06/21 08:13:18;;;;;;;9.98;7.20;;;;;;;;;;4972801;28;20066;-81
2022/06/21 08:15:47;;;;;;;11.60;7.38;;;;;;;;;;4973074;28;20042;-85
2022/06/21 08:18:16;;;;;;;14.77;7.47;;;;;;;;;;4972951;28;20077;-83
2022/06/21 08:20:45;;;;;;;21.02;9.70;;;;;;;;;;4972570;28;20043;-81
2022/06/21 08:23:16;;;;;;;7.65;6.43;;;;;;;;;;4972499;28;20516;-82
2022/06/21 08:25:42;;;;;;;;;;;;;;;;;;4972992;28;20041;-80
2022/06/21 08:28:13;;;;;;;8.38;6.57;;;;;;;;;;4972651;28;19906;-82
2022/06/21 08:30:39;;;;;;;10.07;7.50;;;;;;;;;;4972198;28;20039;-83
2022/06/21 08:33:09;;;;;;;12.40;7.13;;;;;;;;;;4972979;28;20030;-77
2022/06/21 08:35:55;;;;;;;12.27;7.20;;;;;;;;;;4972760;28;20122;-84
2022/06/21 08:38:25;;;;;;;8.85;6.95;;;;;;;;;;4966022;28;20042;-76
2022/06/21 08:40:51;;;;;;;9.00;7.20;;;;;;;;;;4972601;28;20046;-85
2022/06/21 08:43:36;;;;;;;10.45;7.43;;;;;;;;;;4995490;28;20033;-77
2022/06/21 08:46:20;;;;;;;7.10;6.40;;;;;;;;;;5053170;28;20064;-79
2022/06/21 08:48:59;;;;;;;8.93;7.15;;;;;;;;;;5053097;28;20036;-78
2022/06/21 08:51:25;;;;;;;9.85;6.60;;;;;;;;;;5053170;28;20025;-80
2022/06/21 08:53:54;;;;;;;12.48;7.57;;;;;;;;;;5052877;28;20080;-79
2022/06/21 08:56:43;;;;;;;9.00;6.80;;;;;;;;;;5053165;28;20071;-84
2022/06/21 08:59:12;;;;;;;8.73;6.65;;;;;;;;;;5052981;28;20017;-83
2022/06/21 09:01:41;;;;;;;14.73;7.78;;;;;;;;;;5052756;28;20491;-81
2022/06/21 09:04:13;;;;;;;8.18;6.45;;;;;;;;;;5052933;28;20041;-78
2022/06/21 09:07:06;;;;;;;9.40;6.32;;;;;;;;;;5052766;28;20062;-82
2022/06/21 09:09:38;;;;;;;10.38;6.88;;;;;;;;;;5022409;28;20037;-80
2022/06/21 09:12:04;;;;;;;11.98;7.00;;;;;;;;;;5052725;28;20506;-83
2022/06/21 09:14:40;;;;;;;15.45;7.63;;;;;;;;;;5052978;28;20029;-80
2022/06/21 09:17:12;;;;;;;12.68;7.22;;;;;;;;;;5052713;28;20048;-80
2022/06/21 09:19:57;;;;;;;10.23;7.30;;;;;;;;;;5052973;28;20126;-80
2022/06/21 09:22:32;;;;;;;9.55;7.07;;;;;;;;;;5053048;28;20082;-80
2022/06/21 09:25:02;;;;;;;8.90;7.10;;;;;;;;;;5052544;28;20025;-82
2022/06/21 09:27:37;;;;;;;7.97;6.97;;;;;;;;;;5052505;28;20048;-78
2022/06/21 09:30:11;;;;;;;32.10;10.02;;;;;;;;;;5034096;28;20395;-82
2022/06/21 09:33:00;;;;;;;12.27;6.75;;;;;;;;;;5052626;28;20110;-83
2022/06/21 09:35:26;;;;;;;16.55;7.22;;;;;;;;;;5052397;28;20042;-71
2022/06/21 09:37:56;;;;;;;14.07;7.20;;;;;;;;;;5052496;28;20079;-78
2022/06/21 09:40:22;;;;;;;9.73;6.55;;;;;;;;;;5052502;28;20025;-81
2022/06/21 09:42:52;;;;;;;8.10;6.60;;;;;;;;;;5053742;28;20036;-69
2022/06/21 09:45:27;;;;;;;8.15;6.45;;;;;;;;;;5055531;28;20068;-69
2022/06/21 09:48:12;;;;;;;17.42;6.70;;;;;;;;;;5055885;28;20100;-84
2022/06/21 09:50:42;;;;;;;14.23;7.50;;;;;;;;;;5055775;28;20540;-76
2022/06/21 09:53:08;;;;;;;10.48;6.80;;;;;;;;;;5055508;28;20029;-69
2022/06/21 09:55:53;;;;;;;10.75;6.40;;;;;;;;;;5055632;28;20364;-80
2022/06/21 09:58:22;;;;;;;11.13;6.80;;;;;;;;;;5055630;28;20032;-79
2022/06/21 10:00:57;;;;;;;16.55;7.15;;;;;;;;;;5055430;28;20021;-83
2022/06/21 10:03:36;;;;;;;12.50;6.90;;;;;;;;;;5055555;28;20416;-74
2022/06/21 10:06:05;;;;;;;9.18;6.22;;;;;;;;;;5055462;28;20036;-82
2022/06/21 10:08:34;;;;;;;8.95;6.50;;;;;;;;;;5055268;28;20052;-82
2022/06/21 10:11:15;;;;;;;11.27;6.47;;;;;;;;;;5055008;28;20383;-80
2022/06/21 10:13:41;;;;;;;19.30;6.93;;;;;;;;;;5055088;28;20025;-77
2022/06/21 10:16:07;;;;;;;10.50;6.95;;;;;;;;;;5055434;28;20106;-82
2022/06/21 10:18:42;;;;;;;7.47;6.35;;;;;;;;;;5055016;28;20136;-76
2022/06/21 10:21:08;;;;;;;8.43;5.82;;;;;;;;;;5054752;28;20102;-75
2022/06/21 10:23:37;;;;;;;7.53;5.72;;;;;;;;;;5055003;28;20013;-74
2022/06/21 10:26:21;;;;;;;6.88;5.97;;;;;;;;;;5055050;28;20029;-83
2022/06/21 10:28:59;;;;;;;14.10;6.53;;;;;;;;;;5054950;28;20021;-82
2022/06/21 10:31:48;;;;;;;9.20;6.93;;;;;;;;;;5054724;28;20075;-81
2022/06/21 10:34:33;;;;;;;12.05;6.53;;;;;;;;;;5054921;28;20108;-80
2022/06/21 10:37:16;;;;;;;7.72;6.75;;;;;;;;;;5054936;28;20037;-80
2022/06/21 10:39:51;;;;;;;10.40;6.57;;;;;;;;;;5054853;28;20032;-79
2022/06/21 10:42:48;;;;;;;11.02;6.78;;;;;;;;;;5054767;28;20082;-80
2022/06/21 10:45:20;;;;;;;12.30;5.97;;;;;;;;;;5054810;28;20047;-81
2022/06/21 10:47:55;;;;;;;9.95;5.90;;;;;;;;;;5054757;28;20059;-80
2022/06/21 10:50:30;;;;;;;10.50;6.45;;;;;;;;;;5054584;28;20029;-82
2022/06/21 10:52:56;;;;;;;9.85;6.43;;;;;;;;;;5054538;28;20025;-68
2022/06/21 10:55:22;;;;;;;10.55;6.15;;;;;;;;;;5054307;28;20542;-84
2022/06/21 10:57:58;;;;;;;10.15;6.00;;;;;;;;;;5054767;28;20029;-84
2022/06/21 11:03:11;;;;;;;8.20;7.03;;;;;;;;;;5054778;28;20107;-81
2022/06/21 11:05:37;;;;;;;8.80;5.78;;;;;;;;;;5053998;28;20495;-78
2022/06/21 11:08:16;;;;;;;10.27;6.03;;;;;;;;;;5054610;28;20029;-83
2022/06/21 11:10:44;;;;;;;8.93;7.10;;;;;;;;;;5054294;28;20025;-80
2022/06/21 11:13:14;;;;;;;8.35;6.10;;;;;;;;;;5054463;28;20104;-76
2022/06/21 11:15:59;;;;;;;7.85;6.68;;;;;;;;;;5036398;28;20528;-67
2022/06/21 11:18:37;;;;;;;12.73;8.48;;;;;;;;;;5053789;28;20036;-74
2022/06/21 11:21:22;;;;;;;20.30;8.32;;;;;;;;;;5053519;28;20037;-76
2022/06/21 11:24:06;;;;;;;9.82;7.30;;;;;;;;;;5053731;28;20017;-74
2022/06/21 11:26:41;;;;;;;10.13;7.53;;;;;;;;;;5053287;28;20052;-75
2022/06/21 11:29:31;;;;;;;8.27;7.45;;;;;;;;;;5053463;28;20100;-74
2022/06/21 11:32:06;;;;;;;10.63;7.63;;;;;;;;;;4972390;28;20070;-74
2022/06/21 11:34:32;;;;;;;11.35;7.60;;;;;;;;;;4956088;28;20444;-71
2022/06/21 11:37:12;;;;;;;7.70;6.03;;;;;;;;;;4956211;28;20621;-78
2022/06/21 11:40:01;;;;;;;12.73;7.45;;;;;;;;;;4956399;28;20073;-77
2022/06/21 11:42:29;;;;;;;11.30;7.88;;;;;;;;;;4895879;29;20131;-74
2022/06/21 11:45:04;;;;;;;12.60;7.70;;;;;;;;;;4896070;29;20056;-69
2022/06/21 11:47:33;;;;;;;9.82;7.82;;;;;;;;;;4895936;29;20064;-76
2022/06/21 11:50:12;;;;;;;12.00;8.48;;;;;;;;;;4896164;29;20044;-75
2022/06/21 11:52:50;;;;;;;8.02;6.88;;;;;;;;;;4895931;29;20085;-75
2022/06/21 11:55:19;;;;;;;11.43;6.97;;;;;;;;;;4895835;29;20036;-78
2022/06/21 11:57:59;;;;;;;9.20;7.38;;;;;;;;;;4895822;29;20032;-72
2022/06/21 12:00:44;;;;;;;11.83;7.60;;;845.10;1766.40;;;;;;4895707;29;20037;-76
2022/06/21 12:03:21;;;;;;;10.07;8.60;;;845.00;1766.40;;;;;;4895618;29;20040;-74
2022/06/21 12:05:55;;;;;;;10.77;8.35;;;845.00;1740.80;;;;;;4895278;29;20472;-76
2022/06/21 12:08:42;;;;;;;13.85;8.57;;;820.10;1740.80;;;;;;4910346;29;20039;-70
2022/06/21 12:11:17;;;;;;;12.45;7.88;;;844.80;1766.40;;;;;;4952680;29;20027;-73
2022/06/21 12:14:04;;;;;;;13.70;10.43;;;844.80;1766.40;;;;;;4936671;29;20039;-78
2022/06/21 12:16:43;;;;;;;12.73;9.35;;;845.00;1766.40;;;;;;4952676;29;20462;-76
2022/06/21 12:19:33;;;;;;;9.07;8.18;;;845.00;1792.00;;;;;;4990224;28;20110;-77
2022/06/21 12:22:15;;;;;;;10.33;9.00;;;845.00;1766.40;;;;;;5052602;28;20376;-69
2022/06/21 12:24:41;;;;;;;14.80;9.27;;;844.90;1792.00;;;;;;5052761;28;20262;-75
2022/06/21 12:27:11;;;;;;;9.77;8.75;;;845.00;1792.00;;;;;;5052530;28;20024;-74
2022/06/21 12:29:37;;;;;;;10.10;8.75;;;844.90;1792.00;;;;;;5052661;28;20029;-77
2022/06/21 12:32:06;;;;;;;9.00;8.07;;;845.00;1766.40;;;;;;5052593;28;20032;-75
2022/06/21 12:34:55;;;;;;;16.20;10.05;;;844.90;1792.00;;;;;;5053498;28;20075;-77
2022/06/21 12:37:50;;;;;;;11.02;9.30;;;844.80;1817.60;;;;;;5052305;28;20044;-78
2022/06/21 12:40:36;;;;;;;21.77;9.60;;;845.00;1792.00;;;;;;4971151;28;20066;-77
2022/06/21 12:43:11;;;;;;;12.93;9.95;;;;;;;;;;4971491;28;20080;-76
2022/06/21 12:45:43;;;;;;;10.52;8.55;;;;;;;;;;4971515;28;20612;-78
2022/06/21 12:48:33;;;;;;;13.02;10.23;;;;;;;;;;4971574;28;20149;-71
2022/06/21 12:51:11;;;;;;;15.40;9.35;;;;;;;;;;4913898;29;20033;-72
2022/06/21 12:53:39;;;;;;;15.10;9.65;;;;;;;;;;4913912;29;20032;-72
2022/06/21 12:56:08;;;;;;;12.55;9.82;;;;;;;;;;4913754;29;20116;-77
2022/06/21 12:59:05;;;;;;;13.05;9.50;;;;;;;;;;4913798;29;20510;-76
2022/06/21 13:01:49;;;;;;;13.10;10.55;;;;;;;;;;4857348;29;20057;-78
2022/06/21 13:04:34;;;;;;;15.65;11.73;;;;;;;;;;4857415;29;20599;-74
2022/06/21 13:07:07;;;;;;;12.70;10.25;;;;;;;;;;4857767;29;20562;-73
2022/06/21 13:09:36;;;;;;;12.52;10.35;;;;;;;;;;4857769;29;20449;-73
2022/06/21 13:12:04;;;;;;;13.90;11.75;;;;;;;;;;4857552;29;20062;-76
2022/06/21 13:14:45;;;;;;;12.32;10.65;;;;;;;;;;4857480;29;20045;-75
2022/06/21 13:17:11;;;;;;;;;;;;;;;;;;4873293;29;20052;-71
2022/06/21 13:19:40;;;;;;;19.75;10.63;;;;;;;;;;4879771;29;19907;-78
2022/06/21 13:22:25;;;;;;;11.75;10.55;;;;;;;;;;4879639;29;20131;-78
2022/06/21 13:24:51;;;;;;;11.85;10.00;;;;;;;;;;4879743;29;20499;-75
2022/06/21 13:27:21;;;;;;;15.23;11.15;;;;;;;;;;4895154;29;20039;-74
2022/06/21 13:29:53;;;;;;;14.65;11.18;;;;;;;;;;4939642;29;20043;-78
2022/06/21 13:32:22;;;;;;;14.98;10.73;;;;;;;;;;4955597;29;20019;-72
2022/06/21 13:34:57;;;;;;;20.20;11.27;;;;;;;;;;4955583;29;20031;-72
2022/06/21 13:37:36;;;;;;;13.93;11.32;;;;;;;;;;5016993;28;20494;-72
2022/06/21 13:40:09;;;;;;;20.85;10.70;;;;;;;;;;5055684;28;20033;-72
2022/06/21 13:42:47;;;;;;;22.13;11.45;;;;;;;;;;5055613;28;20119;-71
2022/06/21 13:45:22;;;;;;;16.30;11.18;;;;;;;;;;5055824;28;20017;-77
2022/06/21 13:47:53;;;;;;;12.65;11.25;;;;;;;;;;5055818;28;20112;-75
2022/06/21 13:50:29;;;;;;;14.10;11.13;;;;;;;;;;5055670;28;20021;-71
2022/06/21 13:53:00;;;;;;;15.68;10.52;;;;;;;;;;5055578;28;20463;-71
2022/06/21 13:55:35;;;;;;;20.75;11.23;;;;;;;;;;5055606;28;20071;-74
2022/06/21 13:58:21;;;;;;;14.70;11.32;;;;;;;;;;5055395;28;20079;-77
2022/06/21 14:00:55;;;;;;;13.15;11.10;;;;;;;;;;5054875;28;20128;-78
2022/06/21 14:03:28;;;;;;;16.30;11.27;;;;;;;;;;5055118;28;20068;-78
2022/06/21 14:06:08;;;;;;;17.70;12.02;;;;;;;;;;5055111;28;20044;-70
2022/06/21 14:08:40;;;;;;;13.85;12.45;;;;;;;;;;5055158;28;20032;-79
2022/06/21 14:11:15;;;;;;;12.77;11.48;;;;;;;;;;5054959;28;20028;-72
2022/06/21 14:13:47;;;;;;;16.00;12.10;;;;;;;;;;5055067;28;20074;-74
2022/06/21 14:16:25;;;;;;;16.98;12.68;;;;;;;;;;5055092;28;20402;-75
2022/06/21 14:18:52;;;;;;;13.82;12.45;;;;;;;;;;5055399;28;20383;-76
2022/06/21 14:21:24;;;;;;;16.75;13.30;;;;;;;;;;5054767;28;20521;-76
2022/06/21 14:23:53;;;;;;;13.98;12.48;;;;;;;;;;5054789;28;20119;-74
2022/06/21 14:26:58;;;;;;;13.70;11.85;;;;;;;;;;5054719;28;20032;-74
2022/06/21 14:29:38;;;;;;;13.95;11.95;;;;;;;;;;4973220;28;20029;-76
2022/06/21 14:32:12;;;;;;;12.68;11.55;;;;;;;;;;4957456;28;20027;-70
2022/06/21 14:35:07;;;;;;;19.83;12.80;;;;;;;;;;4954377;28;20050;-77
2022/06/21 14:37:50;;;;;;;14.85;13.35;;;;;;;;;;4914733;29;20044;-70
2022/06/21 14:40:27;;;;;;;14.68;12.32;;;;;;;;;;4915612;29;20044;-73
2022/06/21 14:42:55;;;;;;;16.60;13.10;;;;;;;;;;4915084;29;20404;-70
2022/06/21 14:45:21;;;;;;;21.85;14.48;;;;;;;;;;4913887;29;20048;-70
2022/06/21 14:47:58;;;;;;;20.35;15.75;;;;;;;;;;4925269;29;20392;-73
2022/06/21 14:50:30;;;;;;;29.33;15.27;;;;;;;;;;4921716;29;20027;-72
2022/06/21 14:52:56;;;;;;;15.45;11.57;;;;;;;;;;4921886;28;20043;-72
2022/06/21 14:55:25;;;;;;;16.63;12.60;;;;;;;;;;4933571;29;20087;-69
2022/06/21 14:57:52;;;;;;;17.60;13.27;;;;;;;;;;4929601;29;20035;-69
2022/06/21 15:00:21;;;;;;;16.85;12.95;;;;;;;;;;4953637;28;20034;-73
2022/06/21 15:02:50;;;;;;;20.52;15.50;;;;;;;;;;4972518;28;20529;-69
2022/06/21 15:05:22;;;;;;;16.58;13.23;;;;;;;;;;4972262;28;20501;-69
2022/06/21 15:08:07;;;;;;;18.52;13.93;;;;;;;;;;4972717;28;20496;-73